sensor_id;sensor_type;location;lat;lon;timestamp;temperature;humidity
18446;DHT22;9352;50.888;4.466;2024-01-30T00:00:27;11.10;99.90
18446;DHT22;9352;50.888;4.466;2024-01-30T00:02:54;11.20;99.90
18446;DHT22;9352;50.888;4.466;2024-01-30T00:05:21;11.20;99.90
18446;DHT22;9352;50.888;4.466;2024-01-30T00:07:48;11.20;99.90
18446;DHT22;9352;50.888;4.466;2024-01-30T00:10:15;11.20;99.90
18446;DHT22;9352;50.888;4.466;2024-01-30T00:12:44;11.30;99.90
18446;DHT22;9352;50.888;4.466;2024-01-30T00:15:11;11.30;99.90
18446;DHT22;9352;50.888;4.466;2024-01-30T00:17:38;11.30;99.90
18446;DHT22;9352;50.888;4.466;2024-01-30T00:20:06;11.30;99.90
18446;DHT22;9352;50.888;4.466;2024-01-30T00:22:34;11.30;99.90
18446;DHT22;9352;50.888;4.466;2024-01-30T00:25:01;11.30;99.90
18446;DHT22;9352;50.888;4.466;2024-01-30T00:27:28;11.30;99.90
18446;DHT22;9352;50.888;4.466;2024-01-30T00:29:57;11.30;99.90
18446;DHT22;9352;50.888;4.466;2024-01-30T00:32:24;11.30;99.90
18446;DHT22;9352;50.888;4.466;2024-01-30T00:34:51;11.30;99.90
18446;DHT22;9352;50.888;4.466;2024-01-30T00:37:18;11.30;99.90
18446;DHT22;9352;50.888;4.466;2024-01-30T00:39:45;11.30;99.90
18446;DHT22;9352;50.888;4.466;2024-01-30T00:42:12;11.30;99.90
18446;DHT22;9352;50.888;4.466;2024-01-30T00:44:39;11.30;99.90
18446;DHT22;9352;50.888;4.466;2024-01-30T00:47:07;11.40;99.90
18446;DHT22;9352;50.888;4.466;2024-01-30T00:49:34;11.40;99.90
18446;DHT22;9352;50.888;4.466;2024-01-30T00:52:01;11.40;99.90
18446;DHT22;9352;50.888;4.466;2024-01-30T00:54:28;11.50;99.90
18446;DHT22;9352;50.888;4.466;2024-01-30T00:56:56;11.50;99.90
18446;DHT22;9352;50.888;4.466;2024-01-30T00:59:23;11.50;99.90
18446;DHT22;9352;50.888;4.466;2024-01-30T01:01:50;11.50;99.90
18446;DHT22;9352;50.888;4.466;2024-01-30T01:04:19;11.60;99.90
18446;DHT22;9352;50.888;4.466;2024-01-30T01:06:47;11.60;99.90
18446;DHT22;9352;50.888;4.466;2024-01-30T01:09:14;11.60;99.90
18446;DHT22;9352;50.888;4.466;2024-01-30T01:11:41;11.70;99.90
18446;DHT22;9352;50.888;4.466;2024-01-30T01:14:08;11.70;99.90
18446;DHT22;9352;50.888;4.466;2024-01-30T01:16:35;11.70;99.90
18446;DHT22;9352;50.888;4.466;2024-01-30T01:19:03;11.70;99.90
18446;DHT22;9352;50.888;4.466;2024-01-30T01:21:31;11.70;99.90
18446;DHT22;9352;50.888;4.466;2024-01-30T01:23:58;11.70;99.90
18446;DHT22;9352;50.888;4.466;2024-01-30T01:26:25;11.80;99.90
18446;DHT22;9352;50.888;4.466;2024-01-30T01:28:52;11.80;99.90
18446;DHT22;9352;50.888;4.466;2024-01-30T01:31:19;11.90;99.90
18446;DHT22;9352;50.888;4.466;2024-01-30T01:33:50;11.80;99.90
18446;DHT22;9352;50.888;4.466;2024-01-30T01:36:17;11.90;99.90
18446;DHT22;9352;50.888;4.466;2024-01-30T01:38:45;11.80;99.90
18446;DHT22;9352;50.888;4.466;2024-01-30T01:41:12;11.90;99.90
18446;DHT22;9352;50.888;4.466;2024-01-30T01:43:39;11.90;99.90
18446;DHT22;9352;50.888;4.466;2024-01-30T01:46:06;11.90;99.90
18446;DHT22;9352;50.888;4.466;2024-01-30T01:48:35;11.90;99.90
18446;DHT22;9352;50.888;4.466;2024-01-30T01:51:02;11.90;99.90
18446;DHT22;9352;50.888;4.466;2024-01-30T01:53:30;11.90;99.90
18446;DHT22;9352;50.888;4.466;2024-01-30T01:55:59;12.00;99.90
18446;DHT22;9352;50.888;4.466;2024-01-30T01:58:27;12.00;99.90
18446;DHT22;9352;50.888;4.466;2024-01-30T02:00:56;12.00;99.90
18446;DHT22;9352;50.888;4.466;2024-01-30T02:03:24;12.00;99.90
18446;DHT22;9352;50.888;4.466;2024-01-30T02:05:51;12.00;99.90
18446;DHT22;9352;50.888;4.466;2024-01-30T02:08:18;11.90;99.90
18446;DHT22;9352;50.888;4.466;2024-01-30T02:10:45;11.90;99.90
18446;DHT22;9352;50.888;4.466;2024-01-30T02:13:14;11.90;99.90
18446;DHT22;9352;50.888;4.466;2024-01-30T02:15:41;11.90;99.90
18446;DHT22;9352;50.888;4.466;2024-01-30T02:18:08;11.80;99.90
18446;DHT22;9352;50.888;4.466;2024-01-30T02:20:35;11.80;99.90
18446;DHT22;9352;50.888;4.466;2024-01-30T02:23:04;11.80;99.90
18446;DHT22;9352;50.888;4.466;2024-01-30T02:25:35;11.70;99.90
18446;DHT22;9352;50.888;4.466;2024-01-30T02:28:02;11.70;99.90
18446;DHT22;9352;50.888;4.466;2024-01-30T02:30:29;11.60;99.90
18446;DHT22;9352;50.888;4.466;2024-01-30T02:32:56;11.60;99.90
18446;DHT22;9352;50.888;4.466;2024-01-30T02:35:23;11.60;99.90
18446;DHT22;9352;50.888;4.466;2024-01-30T02:37:50;11.60;99.90
18446;DHT22;9352;50.888;4.466;2024-01-30T02:40:18;11.60;99.90
18446;DHT22;9352;50.888;4.466;2024-01-30T02:42:45;11.60;99.90
18446;DHT22;9352;50.888;4.466;2024-01-30T02:45:13;11.60;99.90
18446;DHT22;9352;50.888;4.466;2024-01-30T02:47:40;11.60;99.90
18446;DHT22;9352;50.888;4.466;2024-01-30T02:50:07;11.60;99.90
18446;DHT22;9352;50.888;4.466;2024-01-30T02:52:35;11.60;99.90
18446;DHT22;9352;50.888;4.466;2024-01-30T02:55:02;11.60;99.90
18446;DHT22;9352;50.888;4.466;2024-01-30T02:57:30;11.60;99.90
18446;DHT22;9352;50.888;4.466;2024-01-30T02:59:57;11.60;99.90
18446;DHT22;9352;50.888;4.466;2024-01-30T03:02:24;11.70;99.90
18446;DHT22;9352;50.888;4.466;2024-01-30T03:04:51;11.70;99.90
18446;DHT22;9352;50.888;4.466;2024-01-30T03:07:18;11.70;99.90
18446;DHT22;9352;50.888;4.466;2024-01-30T03:09:45;11.70;99.90
18446;DHT22;9352;50.888;4.466;2024-01-30T03:12:12;11.60;99.90
18446;DHT22;9352;50.888;4.466;2024-01-30T03:14:40;11.60;99.90
18446;DHT22;9352;50.888;4.466;2024-01-30T03:17:07;11.70;99.90
18446;DHT22;9352;50.888;4.466;2024-01-30T03:19:34;11.70;99.90
18446;DHT22;9352;50.888;4.466;2024-01-30T03:22:01;11.70;99.90
18446;DHT22;9352;50.888;4.466;2024-01-30T03:24:28;11.70;99.90
18446;DHT22;9352;50.888;4.466;2024-01-30T03:26:55;11.70;99.90
18446;DHT22;9352;50.888;4.466;2024-01-30T03:29:22;11.80;99.90
18446;DHT22;9352;50.888;4.466;2024-01-30T03:31:50;11.80;99.90
18446;DHT22;9352;50.888;4.466;2024-01-30T03:34:17;11.90;99.90
18446;DHT22;9352;50.888;4.466;2024-01-30T03:36:44;11.90;99.90
18446;DHT22;9352;50.888;4.466;2024-01-30T03:39:10;11.90;99.90
18446;DHT22;9352;50.888;4.466;2024-01-30T03:41:37;12.00;99.90
18446;DHT22;9352;50.888;4.466;2024-01-30T03:44:05;12.00;99.90
18446;DHT22;9352;50.888;4.466;2024-01-30T03:46:32;12.00;99.90
18446;DHT22;9352;50.888;4.466;2024-01-30T03:49:00;12.00;99.90
18446;DHT22;9352;50.888;4.466;2024-01-30T03:51:27;12.00;99.90
18446;DHT22;9352;50.888;4.466;2024-01-30T03:53:54;12.00;99.90
18446;DHT22;9352;50.888;4.466;2024-01-30T03:56:21;12.00;99.90
18446;DHT22;9352;50.888;4.466;2024-01-30T03:58:48;12.00;99.90
18446;DHT22;9352;50.888;4.466;2024-01-30T04:01:15;12.10;99.90
18446;DHT22;9352;50.888;4.466;2024-01-30T04:03:42;12.00;99.90
18446;DHT22;9352;50.888;4.466;2024-01-30T04:06:11;12.00;99.90
18446;DHT22;9352;50.888;4.466;2024-01-30T04:08:38;12.00;99.90
18446;DHT22;9352;50.888;4.466;2024-01-30T04:11:05;12.00;99.90
18446;DHT22;9352;50.888;4.466;2024-01-30T04:13:32;11.90;99.90
18446;DHT22;9352;50.888;4.466;2024-01-30T04:16:00;11.90;99.90
18446;DHT22;9352;50.888;4.466;2024-01-30T04:18:28;11.90;99.90
18446;DHT22;9352;50.888;4.466;2024-01-30T04:20:54;11.90;99.90
18446;DHT22;9352;50.888;4.466;2024-01-30T04:23:23;11.80;99.90
18446;DHT22;9352;50.888;4.466;2024-01-30T04:25:50;11.80;99.90
18446;DHT22;9352;50.888;4.466;2024-01-30T04:28:17;11.80;99.90
18446;DHT22;9352;50.888;4.466;2024-01-30T04:30:43;11.80;99.90
18446;DHT22;9352;50.888;4.466;2024-01-30T04:33:10;11.70;99.90
18446;DHT22;9352;50.888;4.466;2024-01-30T04:35:38;11.70;99.90
18446;DHT22;9352;50.888;4.466;2024-01-30T04:38:04;11.70;99.90
18446;DHT22;9352;50.888;4.466;2024-01-30T04:40:33;11.70;99.90
18446;DHT22;9352;50.888;4.466;2024-01-30T04:43:00;11.70;99.90
18446;DHT22;9352;50.888;4.466;2024-01-30T04:45:27;11.70;99.90
18446;DHT22;9352;50.888;4.466;2024-01-30T04:47:53;11.70;99.90
18446;DHT22;9352;50.888;4.466;2024-01-30T04:50:20;11.70;99.90
18446;DHT22;9352;50.888;4.466;2024-01-30T04:52:47;11.70;99.90
18446;DHT22;9352;50.888;4.466;2024-01-30T04:55:14;11.70;99.90
18446;DHT22;9352;50.888;4.466;2024-01-30T04:57:42;11.70;99.90
18446;DHT22;9352;50.888;4.466;2024-01-30T05:00:10;11.70;99.90
18446;DHT22;9352;50.888;4.466;2024-01-30T05:02:38;11.70;99.90
18446;DHT22;9352;50.888;4.466;2024-01-30T05:05:05;11.70;99.90
18446;DHT22;9352;50.888;4.466;2024-01-30T05:07:33;11.70;99.90
18446;DHT22;9352;50.888;4.466;2024-01-30T05:10:00;11.70;99.90
18446;DHT22;9352;50.888;4.466;2024-01-30T05:12:27;11.70;99.90
18446;DHT22;9352;50.888;4.466;2024-01-30T05:14:55;11.70;99.90
18446;DHT22;9352;50.888;4.466;2024-01-30T05:17:22;11.70;99.90
18446;DHT22;9352;50.888;4.466;2024-01-30T05:19:49;11.70;99.90
18446;DHT22;9352;50.888;4.466;2024-01-30T05:22:16;11.70;99.90
18446;DHT22;9352;50.888;4.466;2024-01-30T05:24:44;11.70;99.90
18446;DHT22;9352;50.888;4.466;2024-01-30T05:27:11;11.70;99.90
18446;DHT22;9352;50.888;4.466;2024-01-30T05:29:39;11.70;99.90
18446;DHT22;9352;50.888;4.466;2024-01-30T05:32:07;11.70;99.90
18446;DHT22;9352;50.888;4.466;2024-01-30T05:34:34;11.60;99.90
18446;DHT22;9352;50.888;4.466;2024-01-30T05:37:02;11.60;99.90
18446;DHT22;9352;50.888;4.466;2024-01-30T05:39:28;11.60;99.90
18446;DHT22;9352;50.888;4.466;2024-01-30T05:41:58;11.60;99.90
18446;DHT22;9352;50.888;4.466;2024-01-30T05:44:25;11.60;99.90
18446;DHT22;9352;50.888;4.466;2024-01-30T05:46:52;11.60;99.90
18446;DHT22;9352;50.888;4.466;2024-01-30T05:49:20;11.60;99.90
18446;DHT22;9352;50.888;4.466;2024-01-30T05:51:47;11.60;99.90
18446;DHT22;9352;50.888;4.466;2024-01-30T05:54:14;11.60;99.90
18446;DHT22;9352;50.888;4.466;2024-01-30T05:56:41;11.60;99.90
18446;DHT22;9352;50.888;4.466;2024-01-30T05:59:07;11.60;99.90
18446;DHT22;9352;50.888;4.466;2024-01-30T06:01:34;11.60;99.90
18446;DHT22;9352;50.888;4.466;2024-01-30T06:04:01;11.60;99.90
18446;DHT22;9352;50.888;4.466;2024-01-30T06:06:30;11.60;99.90
18446;DHT22;9352;50.888;4.466;2024-01-30T06:08:56;11.60;99.90
18446;DHT22;9352;50.888;4.466;2024-01-30T06:11:23;11.60;99.90
18446;DHT22;9352;50.888;4.466;2024-01-30T06:13:50;11.60;99.90
18446;DHT22;9352;50.888;4.466;2024-01-30T06:16:17;11.60;99.90
18446;DHT22;9352;50.888;4.466;2024-01-30T06:18:46;11.60;99.90
18446;DHT22;9352;50.888;4.466;2024-01-30T06:21:13;11.60;99.90
18446;DHT22;9352;50.888;4.466;2024-01-30T06:23:41;11.60;99.90
18446;DHT22;9352;50.888;4.466;2024-01-30T06:26:08;11.50;99.90
18446;DHT22;9352;50.888;4.466;2024-01-30T06:28:35;11.50;99.90
18446;DHT22;9352;50.888;4.466;2024-01-30T06:31:02;11.50;99.90
18446;DHT22;9352;50.888;4.466;2024-01-30T06:33:29;11.50;99.90
18446;DHT22;9352;50.888;4.466;2024-01-30T06:35:56;11.50;99.90
18446;DHT22;9352;50.888;4.466;2024-01-30T06:38:23;11.50;99.90
18446;DHT22;9352;50.888;4.466;2024-01-30T06:40:51;11.50;99.90
18446;DHT22;9352;50.888;4.466;2024-01-30T06:43:18;11.50;99.90
18446;DHT22;9352;50.888;4.466;2024-01-30T06:45:45;11.50;99.90
18446;DHT22;9352;50.888;4.466;2024-01-30T06:48:12;11.50;99.90
18446;DHT22;9352;50.888;4.466;2024-01-30T06:50:39;11.50;99.90
18446;DHT22;9352;50.888;4.466;2024-01-30T06:53:06;11.50;99.90
18446;DHT22;9352;50.888;4.466;2024-01-30T06:55:32;11.50;99.90
18446;DHT22;9352;50.888;4.466;2024-01-30T06:58:01;11.50;99.90
18446;DHT22;9352;50.888;4.466;2024-01-30T07:00:28;11.60;99.90
18446;DHT22;9352;50.888;4.466;2024-01-30T07:02:55;11.50;99.90
18446;DHT22;9352;50.888;4.466;2024-01-30T07:05:21;11.50;99.90
18446;DHT22;9352;50.888;4.466;2024-01-30T07:07:48;11.50;99.90
18446;DHT22;9352;50.888;4.466;2024-01-30T07:10:15;11.50;99.90
18446;DHT22;9352;50.888;4.466;2024-01-30T07:12:42;11.50;99.90
18446;DHT22;9352;50.888;4.466;2024-01-30T07:15:11;11.50;99.90
18446;DHT22;9352;50.888;4.466;2024-01-30T07:17:40;11.60;99.90
18446;DHT22;9352;50.888;4.466;2024-01-30T07:20:08;11.60;99.90
18446;DHT22;9352;50.888;4.466;2024-01-30T07:22:35;11.60;99.90
18446;DHT22;9352;50.888;4.466;2024-01-30T07:25:02;11.70;99.90
18446;DHT22;9352;50.888;4.466;2024-01-30T07:27:29;11.80;99.90
18446;DHT22;9352;50.888;4.466;2024-01-30T07:29:55;11.70;99.90
18446;DHT22;9352;50.888;4.466;2024-01-30T07:32:24;11.80;99.90
18446;DHT22;9352;50.888;4.466;2024-01-30T07:34:50;11.80;99.90
18446;DHT22;9352;50.888;4.466;2024-01-30T07:37:17;11.90;99.90
18446;DHT22;9352;50.888;4.466;2024-01-30T07:39:45;11.90;99.90
18446;DHT22;9352;50.888;4.466;2024-01-30T07:42:12;11.90;99.90
18446;DHT22;9352;50.888;4.466;2024-01-30T07:44:38;12.00;99.90
18446;DHT22;9352;50.888;4.466;2024-01-30T07:47:05;12.00;99.90
18446;DHT22;9352;50.888;4.466;2024-01-30T07:49:34;12.10;99.90
18446;DHT22;9352;50.888;4.466;2024-01-30T07:52:01;12.10;99.90
18446;DHT22;9352;50.888;4.466;2024-01-30T07:54:29;12.20;99.90
18446;DHT22;9352;50.888;4.466;2024-01-30T07:57:00;12.30;99.90
18446;DHT22;9352;50.888;4.466;2024-01-30T07:59:27;12.30;99.90
18446;DHT22;9352;50.888;4.466;2024-01-30T08:01:54;12.40;99.90
18446;DHT22;9352;50.888;4.466;2024-01-30T08:04:21;12.40;99.90
18446;DHT22;9352;50.888;4.466;2024-01-30T08:06:49;12.40;99.90
18446;DHT22;9352;50.888;4.466;2024-01-30T08:09:16;12.40;99.90
18446;DHT22;9352;50.888;4.466;2024-01-30T08:11:43;12.50;99.90
18446;DHT22;9352;50.888;4.466;2024-01-30T08:14:10;12.50;99.90
18446;DHT22;9352;50.888;4.466;2024-01-30T08:16:39;12.50;99.90
18446;DHT22;9352;50.888;4.466;2024-01-30T08:19:06;12.50;99.90
18446;DHT22;9352;50.888;4.466;2024-01-30T08:21:33;12.40;99.90
18446;DHT22;9352;50.888;4.466;2024-01-30T08:24:04;12.50;99.90
18446;DHT22;9352;50.888;4.466;2024-01-30T08:26:31;12.40;99.90
18446;DHT22;9352;50.888;4.466;2024-01-30T08:28:58;12.50;99.90
18446;DHT22;9352;50.888;4.466;2024-01-30T08:31:25;12.50;99.90
18446;DHT22;9352;50.888;4.466;2024-01-30T08:33:52;12.50;99.90
18446;DHT22;9352;50.888;4.466;2024-01-30T08:36:20;12.50;99.90
18446;DHT22;9352;50.888;4.466;2024-01-30T08:38:47;12.50;99.90
18446;DHT22;9352;50.888;4.466;2024-01-30T08:41:15;12.50;99.90
18446;DHT22;9352;50.888;4.466;2024-01-30T08:43:42;12.60;99.90
18446;DHT22;9352;50.888;4.466;2024-01-30T08:46:10;12.70;99.90
18446;DHT22;9352;50.888;4.466;2024-01-30T08:48:37;12.70;99.90
18446;DHT22;9352;50.888;4.466;2024-01-30T08:51:04;12.80;99.90
18446;DHT22;9352;50.888;4.466;2024-01-30T08:53:34;12.80;99.90
18446;DHT22;9352;50.888;4.466;2024-01-30T08:56:01;12.80;99.90
18446;DHT22;9352;50.888;4.466;2024-01-30T08:58:30;12.80;99.90
18446;DHT22;9352;50.888;4.466;2024-01-30T09:00:57;12.80;99.90
18446;DHT22;9352;50.888;4.466;2024-01-30T09:03:24;12.70;99.90
18446;DHT22;9352;50.888;4.466;2024-01-30T09:05:51;12.70;99.90
18446;DHT22;9352;50.888;4.466;2024-01-30T09:08:18;12.70;99.90
18446;DHT22;9352;50.888;4.466;2024-01-30T09:10:44;12.70;99.90
18446;DHT22;9352;50.888;4.466;2024-01-30T09:13:11;12.60;99.90
18446;DHT22;9352;50.888;4.466;2024-01-30T09:15:40;12.60;99.90
18446;DHT22;9352;50.888;4.466;2024-01-30T09:18:07;12.60;99.90
18446;DHT22;9352;50.888;4.466;2024-01-30T09:20:34;12.70;99.90
18446;DHT22;9352;50.888;4.466;2024-01-30T09:23:00;12.70;99.90
18446;DHT22;9352;50.888;4.466;2024-01-30T09:25:27;12.70;99.90
18446;DHT22;9352;50.888;4.466;2024-01-30T09:27:54;12.70;99.90
18446;DHT22;9352;50.888;4.466;2024-01-30T09:30:21;12.80;99.90
18446;DHT22;9352;50.888;4.466;2024-01-30T09:32:49;12.80;99.90
18446;DHT22;9352;50.888;4.466;2024-01-30T09:35:16;12.80;99.90
18446;DHT22;9352;50.888;4.466;2024-01-30T09:37:43;12.80;99.90
18446;DHT22;9352;50.888;4.466;2024-01-30T09:40:10;12.80;99.90
18446;DHT22;9352;50.888;4.466;2024-01-30T09:42:37;12.80;99.90
18446;DHT22;9352;50.888;4.466;2024-01-30T09:45:05;12.80;99.90
18446;DHT22;9352;50.888;4.466;2024-01-30T09:47:32;12.80;99.90
18446;DHT22;9352;50.888;4.466;2024-01-30T09:50:04;12.80;99.90
18446;DHT22;9352;50.888;4.466;2024-01-30T09:52:31;12.70;99.90
18446;DHT22;9352;50.888;4.466;2024-01-30T09:54:59;12.70;99.90
18446;DHT22;9352;50.888;4.466;2024-01-30T09:57:26;12.60;99.90
18446;DHT22;9352;50.888;4.466;2024-01-30T09:59:53;12.60;99.90
18446;DHT22;9352;50.888;4.466;2024-01-30T10:02:20;12.60;99.90
18446;DHT22;9352;50.888;4.466;2024-01-30T10:04:48;12.60;99.90
18446;DHT22;9352;50.888;4.466;2024-01-30T10:07:16;12.50;99.90
18446;DHT22;9352;50.888;4.466;2024-01-30T10:09:43;12.60;99.90
18446;DHT22;9352;50.888;4.466;2024-01-30T10:12:10;12.50;99.90
18446;DHT22;9352;50.888;4.466;2024-01-30T10:14:38;12.50;99.90
18446;DHT22;9352;50.888;4.466;2024-01-30T10:17:08;12.60;99.90
18446;DHT22;9352;50.888;4.466;2024-01-30T10:19:35;12.60;99.90
18446;DHT22;9352;50.888;4.466;2024-01-30T10:22:03;12.60;99.90
18446;DHT22;9352;50.888;4.466;2024-01-30T10:24:33;12.60;99.90
18446;DHT22;9352;50.888;4.466;2024-01-30T10:27:00;12.70;99.90
18446;DHT22;9352;50.888;4.466;2024-01-30T10:29:27;12.70;99.90
18446;DHT22;9352;50.888;4.466;2024-01-30T10:32:00;12.60;99.90
18446;DHT22;9352;50.888;4.466;2024-01-30T10:34:28;12.60;99.90
18446;DHT22;9352;50.888;4.466;2024-01-30T10:37:07;12.50;99.90
18446;DHT22;9352;50.888;4.466;2024-01-30T10:39:40;12.50;99.90
18446;DHT22;9352;50.888;4.466;2024-01-30T10:42:14;12.50;99.90
18446;DHT22;9352;50.888;4.466;2024-01-30T10:44:48;12.40;99.90
18446;DHT22;9352;50.888;4.466;2024-01-30T10:47:26;12.40;99.90
18446;DHT22;9352;50.888;4.466;2024-01-30T10:49:54;12.40;99.90
18446;DHT22;9352;50.888;4.466;2024-01-30T10:52:23;12.40;99.90
18446;DHT22;9352;50.888;4.466;2024-01-30T10:54:53;12.40;99.90
18446;DHT22;9352;50.888;4.466;2024-01-30T10:57:22;12.40;99.90
18446;DHT22;9352;50.888;4.466;2024-01-30T10:59:49;12.40;99.90
18446;DHT22;9352;50.888;4.466;2024-01-30T11:02:18;12.30;99.90
18446;DHT22;9352;50.888;4.466;2024-01-30T11:04:46;12.30;99.90
18446;DHT22;9352;50.888;4.466;2024-01-30T11:07:17;12.20;99.90
18446;DHT22;9352;50.888;4.466;2024-01-30T11:09:51;12.20;99.90
18446;DHT22;9352;50.888;4.466;2024-01-30T11:12:22;12.10;99.90
18446;DHT22;9352;50.888;4.466;2024-01-30T11:14:50;12.20;99.90
18446;DHT22;9352;50.888;4.466;2024-01-30T11:17:17;12.10;99.90
18446;DHT22;9352;50.888;4.466;2024-01-30T11:19:44;12.20;99.90
18446;DHT22;9352;50.888;4.466;2024-01-30T11:22:12;12.10;99.90
18446;DHT22;9352;50.888;4.466;2024-01-30T11:24:40;12.10;99.90
18446;DHT22;9352;50.888;4.466;2024-01-30T11:27:09;12.00;99.90
18446;DHT22;9352;50.888;4.466;2024-01-30T11:29:36;12.00;99.90
18446;DHT22;9352;50.888;4.466;2024-01-30T11:32:04;11.90;99.90
18446;DHT22;9352;50.888;4.466;2024-01-30T11:34:32;12.00;99.90
18446;DHT22;9352;50.888;4.466;2024-01-30T11:37:03;12.10;99.90
18446;DHT22;9352;50.888;4.466;2024-01-30T11:39:32;12.10;99.90
18446;DHT22;9352;50.888;4.466;2024-01-30T11:41:59;12.10;99.90
18446;DHT22;9352;50.888;4.466;2024-01-30T11:44:28;12.10;99.90
18446;DHT22;9352;50.888;4.466;2024-01-30T11:46:55;12.20;99.90
18446;DHT22;9352;50.888;4.466;2024-01-30T11:49:25;12.10;99.90
18446;DHT22;9352;50.888;4.466;2024-01-30T11:51:52;12.10;99.90
18446;DHT22;9352;50.888;4.466;2024-01-30T11:54:19;12.10;99.90
18446;DHT22;9352;50.888;4.466;2024-01-30T11:56:46;12.20;99.90
18446;DHT22;9352;50.888;4.466;2024-01-30T11:59:14;12.20;99.90
18446;DHT22;9352;50.888;4.466;2024-01-30T12:01:42;12.30;99.90
18446;DHT22;9352;50.888;4.466;2024-01-30T12:04:09;12.40;99.90
18446;DHT22;9352;50.888;4.466;2024-01-30T12:06:36;12.50;99.90
18446;DHT22;9352;50.888;4.466;2024-01-30T12:09:03;12.60;99.90
18446;DHT22;9352;50.888;4.466;2024-01-30T12:11:31;12.60;99.90
18446;DHT22;9352;50.888;4.466;2024-01-30T12:13:58;12.70;99.90
18446;DHT22;9352;50.888;4.466;2024-01-30T12:16:25;12.70;99.90
18446;DHT22;9352;50.888;4.466;2024-01-30T12:19:00;12.50;99.90
18446;DHT22;9352;50.888;4.466;2024-01-30T12:21:28;12.40;99.90
18446;DHT22;9352;50.888;4.466;2024-01-30T12:23:56;12.30;99.90
18446;DHT22;9352;50.888;4.466;2024-01-30T12:26:23;12.10;99.90
18446;DHT22;9352;50.888;4.466;2024-01-30T12:28:53;12.30;99.90
18446;DHT22;9352;50.888;4.466;2024-01-30T12:31:25;12.60;99.90
18446;DHT22;9352;50.888;4.466;2024-01-30T12:33:53;12.60;99.90
18446;DHT22;9352;50.888;4.466;2024-01-30T12:36:21;12.80;99.90
18446;DHT22;9352;50.888;4.466;2024-01-30T12:38:48;13.00;99.90
18446;DHT22;9352;50.888;4.466;2024-01-30T12:41:15;13.10;99.90
18446;DHT22;9352;50.888;4.466;2024-01-30T12:43:42;13.00;99.90
18446;DHT22;9352;50.888;4.466;2024-01-30T12:46:09;13.10;99.90
18446;DHT22;9352;50.888;4.466;2024-01-30T12:48:36;12.90;99.90
18446;DHT22;9352;50.888;4.466;2024-01-30T12:51:03;12.90;99.90
18446;DHT22;9352;50.888;4.466;2024-01-30T12:53:32;12.90;99.90
18446;DHT22;9352;50.888;4.466;2024-01-30T12:55:59;13.00;99.90
18446;DHT22;9352;50.888;4.466;2024-01-30T12:58:26;13.00;99.90
18446;DHT22;9352;50.888;4.466;2024-01-30T13:00:53;12.90;99.90
18446;DHT22;9352;50.888;4.466;2024-01-30T13:03:20;12.80;99.90
18446;DHT22;9352;50.888;4.466;2024-01-30T13:05:48;12.70;99.90
18446;DHT22;9352;50.888;4.466;2024-01-30T13:08:15;12.60;99.90
18446;DHT22;9352;50.888;4.466;2024-01-30T13:10:43;12.50;99.90
18446;DHT22;9352;50.888;4.466;2024-01-30T13:13:10;12.30;99.90
18446;DHT22;9352;50.888;4.466;2024-01-30T13:15:37;12.30;99.90
18446;DHT22;9352;50.888;4.466;2024-01-30T13:18:04;12.20;99.90
18446;DHT22;9352;50.888;4.466;2024-01-30T13:20:31;12.30;99.90
18446;DHT22;9352;50.888;4.466;2024-01-30T13:22:58;12.20;99.90
18446;DHT22;9352;50.888;4.466;2024-01-30T13:25:25;12.10;99.90
18446;DHT22;9352;50.888;4.466;2024-01-30T13:27:53;12.10;99.90
18446;DHT22;9352;50.888;4.466;2024-01-30T13:30:20;11.90;99.90
18446;DHT22;9352;50.888;4.466;2024-01-30T13:32:47;11.90;99.90
18446;DHT22;9352;50.888;4.466;2024-01-30T13:35:14;11.80;99.90
18446;DHT22;9352;50.888;4.466;2024-01-30T13:37:41;11.90;99.90
18446;DHT22;9352;50.888;4.466;2024-01-30T13:40:09;11.90;99.90
18446;DHT22;9352;50.888;4.466;2024-01-30T13:42:36;11.80;99.90
18446;DHT22;9352;50.888;4.466;2024-01-30T13:45:05;11.90;99.90
18446;DHT22;9352;50.888;4.466;2024-01-30T13:47:31;11.90;99.90
18446;DHT22;9352;50.888;4.466;2024-01-30T13:49:58;12.00;99.90
18446;DHT22;9352;50.888;4.466;2024-01-30T13:52:25;12.20;99.90
18446;DHT22;9352;50.888;4.466;2024-01-30T13:54:52;12.10;99.90
18446;DHT22;9352;50.888;4.466;2024-01-30T13:57:19;12.10;99.90
18446;DHT22;9352;50.888;4.466;2024-01-30T13:59:46;12.10;99.90
18446;DHT22;9352;50.888;4.466;2024-01-30T14:02:14;12.10;99.90
18446;DHT22;9352;50.888;4.466;2024-01-30T14:04:41;12.10;99.90
18446;DHT22;9352;50.888;4.466;2024-01-30T14:07:09;12.10;99.90
18446;DHT22;9352;50.888;4.466;2024-01-30T14:09:36;12.10;99.90
18446;DHT22;9352;50.888;4.466;2024-01-30T14:12:03;12.00;99.90
18446;DHT22;9352;50.888;4.466;2024-01-30T14:14:30;11.90;99.90
18446;DHT22;9352;50.888;4.466;2024-01-30T14:16:57;11.80;99.90
18446;DHT22;9352;50.888;4.466;2024-01-30T14:19:25;11.80;99.90
18446;DHT22;9352;50.888;4.466;2024-01-30T14:21:52;11.70;99.90
18446;DHT22;9352;50.888;4.466;2024-01-30T14:24:18;11.70;99.90
18446;DHT22;9352;50.888;4.466;2024-01-30T14:26:45;11.50;99.90
18446;DHT22;9352;50.888;4.466;2024-01-30T14:29:13;11.50;99.90
18446;DHT22;9352;50.888;4.466;2024-01-30T14:31:39;11.50;99.90
18446;DHT22;9352;50.888;4.466;2024-01-30T14:34:06;11.50;99.90
18446;DHT22;9352;50.888;4.466;2024-01-30T14:36:35;11.40;99.90
18446;DHT22;9352;50.888;4.466;2024-01-30T14:39:02;11.50;99.90
18446;DHT22;9352;50.888;4.466;2024-01-30T14:41:29;11.40;99.90
18446;DHT22;9352;50.888;4.466;2024-01-30T14:43:56;11.30;99.90
18446;DHT22;9352;50.888;4.466;2024-01-30T14:46:23;11.30;99.90
18446;DHT22;9352;50.888;4.466;2024-01-30T14:48:52;11.20;99.90
18446;DHT22;9352;50.888;4.466;2024-01-30T14:51:20;11.20;99.90
18446;DHT22;9352;50.888;4.466;2024-01-30T14:53:48;11.20;99.90
18446;DHT22;9352;50.888;4.466;2024-01-30T14:56:15;11.20;99.90
18446;DHT22;9352;50.888;4.466;2024-01-30T14:58:42;11.10;99.90
18446;DHT22;9352;50.888;4.466;2024-01-30T15:01:10;10.90;99.90
18446;DHT22;9352;50.888;4.466;2024-01-30T15:03:38;10.90;99.90
18446;DHT22;9352;50.888;4.466;2024-01-30T15:06:12;10.90;99.90
18446;DHT22;9352;50.888;4.466;2024-01-30T15:08:39;10.90;99.90
18446;DHT22;9352;50.888;4.466;2024-01-30T15:11:07;10.90;99.90
18446;DHT22;9352;50.888;4.466;2024-01-30T15:13:34;10.80;99.90
18446;DHT22;9352;50.888;4.466;2024-01-30T15:16:02;10.80;99.90
18446;DHT22;9352;50.888;4.466;2024-01-30T15:18:31;10.70;99.90
18446;DHT22;9352;50.888;4.466;2024-01-30T15:20:58;10.70;99.90
18446;DHT22;9352;50.888;4.466;2024-01-30T15:23:25;10.60;99.90
18446;DHT22;9352;50.888;4.466;2024-01-30T15:25:52;10.60;99.90
18446;DHT22;9352;50.888;4.466;2024-01-30T15:28:33;10.60;99.90
18446;DHT22;9352;50.888;4.466;2024-01-30T15:31:00;10.60;99.90
18446;DHT22;9352;50.888;4.466;2024-01-30T15:33:27;10.50;99.90
18446;DHT22;9352;50.888;4.466;2024-01-30T15:35:54;10.60;99.90
18446;DHT22;9352;50.888;4.466;2024-01-30T15:38:22;10.60;99.90
18446;DHT22;9352;50.888;4.466;2024-01-30T15:40:49;10.60;99.90
18446;DHT22;9352;50.888;4.466;2024-01-30T15:43:16;10.50;99.90
18446;DHT22;9352;50.888;4.466;2024-01-30T15:45:44;10.50;99.90